Time;durP1;ratioP1;P1;durP2;ratioP2;P2;SDS_P1;SDS_P2;PMS_P1;PMS_P2;Temp;Humidity;BMP_temperature;BMP_pressure;BME280_temperature;BME280_humidity;BME280_pressure;Samples;Min_cycle;Max_cycle;Signal;HPM_P1;HPM_P2
2021/05/27 00:00:15;;;;;;;15.57;9.35;;;;;9.00;100888.00;;;;5087758;28;20028;-67
2021/05/27 00:02:42;;;;;;;23.45;9.43;;;;;9.00;100886.00;;;;5087659;28;20493;-69
2021/05/27 00:05:09;;;;;;;20.60;9.98;;;;;9.00;100902.00;;;;5087380;28;20068;-69
2021/05/27 00:07:36;;;;;;;19.95;10.25;;;;;9.00;100889.00;;;;5087398;28;20032;-67
2021/05/27 00:10:04;;;;;;;25.08;11.65;;;;;9.00;100891.00;;;;5069299;28;20497;-68
2021/05/27 00:12:31;;;;;;;20.38;10.00;;;;;9.00;100888.00;;;;5088421;28;20024;-69
2021/05/27 00:14:57;;;;;;;18.65;10.27;;;;;9.00;100890.00;;;;5087787;28;20099;-70
2021/05/27 00:17:24;;;;;;;16.92;8.90;;;;;8.90;100885.00;;;;5088057;28;20221;-67
2021/05/27 00:19:50;;;;;;;17.63;8.85;;;;;8.80;100876.00;;;;5087495;28;20027;-68
2021/05/27 00:22:17;;;;;;;15.98;8.52;;;;;8.80;100876.00;;;;5069277;28;20478;-68
2021/05/27 00:24:43;;;;;;;15.27;7.95;;;;;8.80;100875.00;;;;5087475;28;20541;-69
2021/05/27 00:27:10;;;;;;;12.55;7.22;;;;;8.90;100872.00;;;;5087370;28;20016;-67
2021/05/27 00:29:37;;;;;;;14.20;8.27;;;;;8.90;100885.00;;;;5087468;28;20027;-68
2021/05/27 00:32:04;;;;;;;19.65;9.10;;;;;8.90;100871.00;;;;5087254;28;20111;-69
2021/05/27 00:34:30;;;;;;;11.43;8.60;;;;;8.80;100858.00;;;;5086977;28;20020;-69
2021/05/27 00:36:57;;;;;;;16.08;8.55;;;;;8.80;100868.00;;;;5087628;28;20031;-69
2021/05/27 00:39:23;;;;;;;12.57;7.55;;;;;8.80;100862.00;;;;5086912;28;20027;-68
2021/05/27 00:41:50;;;;;;;15.10;7.60;;;;;8.80;100860.00;;;;5087979;28;20085;-69
2021/05/27 00:44:30;;;;;;;15.45;8.30;;;;;8.70;100872.00;;;;5087194;28;20088;-68
2021/05/27 00:46:59;;;;;;;13.73;7.72;;;;;8.70;100857.00;;;;5086582;28;20122;-68
2021/05/27 00:49:28;;;;;;;9.82;7.28;;;;;8.80;100881.00;;;;5087379;28;20028;-69
2021/05/27 00:51:55;;;;;;;11.23;6.78;;;;;8.90;100848.00;;;;5086738;28;20035;-68
2021/05/27 00:54:22;;;;;;;8.85;6.97;;;;;8.90;100853.00;;;;5067999;28;20148;-68
2021/05/27 00:56:52;;;;;;;9.13;6.30;;;;;8.90;100846.00;;;;5086401;28;20050;-68
2021/05/27 00:59:20;;;;;;;15.70;6.55;;;;;8.90;100848.00;;;;5086849;28;20028;-68
2021/05/27 01:01:52;;;;;;;13.88;6.40;;;;;8.90;100847.00;;;;5086582;28;20035;-67
2021/05/27 01:04:19;;;;;;;13.98;6.32;;;;;8.90;100846.00;;;;5086893;28;20024;-67
2021/05/27 01:06:46;;;;;;;10.25;7.55;;;;;8.90;100844.00;;;;5088099;28;20024;-67
2021/05/27 01:09:12;;;;;;;11.57;7.45;;;;;8.90;100827.00;;;;5086700;28;20020;-69
2021/05/27 01:11:39;;;;;;;10.25;7.95;;;;;8.80;100824.00;;;;5086504;28;20021;-69
2021/05/27 01:17:04;;;;;;;16.60;6.10;;;;;8.70;100854.00;;;;5086764;28;20035;-68
2021/05/27 01:19:32;;;;;;;12.13;6.38;;;;;8.70;100844.00;;;;5086716;28;20027;-69
2021/05/27 01:21:58;;;;;;;11.80;7.30;;;;;8.70;100834.00;;;;5086326;28;20024;-68
2021/05/27 01:24:25;;;;;;;12.82;7.15;;;;;8.70;100833.00;;;;5086374;28;20062;-70
2021/05/27 01:26:51;;;;;;;9.18;6.60;;;;;8.70;100831.00;;;;5085990;28;20052;-68
2021/05/27 01:29:18;;;;;;;16.15;7.13;;;;;8.60;100826.00;;;;5086365;28;20648;-69
2021/05/27 01:31:44;;;;;;;15.23;7.65;;;;;8.60;100817.00;;;;5086071;28;20374;-68
2021/05/27 01:34:12;;;;;;;20.38;7.85;;;;;8.60;100833.00;;;;5087619;28;20031;-69
2021/05/27 01:36:47;;;;;;;12.90;7.72;;;;;8.60;100826.00;;;;5086271;28;20027;-68
2021/05/27 01:39:14;;;;;;;17.55;8.43;;;;;8.60;100832.00;;;;5085972;28;20877;-68
2021/05/27 01:41:41;;;;;;;11.50;7.72;;;;;8.60;100835.00;;;;5086995;28;20027;-68
2021/05/27 01:44:08;;;;;;;19.23;7.65;;;;;8.50;100831.00;;;;5086477;28;20028;-68
2021/05/27 01:46:34;;;;;;;16.45;9.30;;;;;8.50;100821.00;;;;5086719;28;20039;-66
2021/05/27 01:49:02;;;;;;;15.60;8.85;;;;;8.40;100819.00;;;;5086120;28;20031;-68
2021/05/27 01:51:28;;;;;;;12.98;8.13;;;;;8.30;100832.00;;;;5085477;28;20020;-69
2021/05/27 01:53:55;;;;;;;16.33;9.65;;;;;8.30;100811.00;;;;5085663;28;20557;-68
2021/05/27 01:56:22;;;;;;;19.35;8.70;;;;;8.20;100810.00;;;;5086266;28;20024;-68
2021/05/27 01:58:48;;;;;;;9.27;7.53;;;;;8.20;100820.00;;;;5086745;28;20487;-69
2021/05/27 02:01:15;;;;;;;12.32;7.88;;;;;8.20;100822.00;;;;5086460;28;20060;-68
2021/05/27 02:03:42;;;;;;;14.38;8.13;;;;;8.10;100819.00;;;;5085870;28;20021;-68
2021/05/27 02:06:08;;;;;;;17.52;8.40;;;;;8.10;100817.00;;;;5085074;28;20027;-67
2021/05/27 02:08:35;;;;;;;16.20;7.68;;;;;8.10;100806.00;;;;5085937;28;20031;-69
2021/05/27 02:11:01;;;;;;;18.67;8.00;;;;;8.00;100809.00;;;;5086486;28;20035;-67
2021/05/27 02:13:28;;;;;;;15.05;8.50;;;;;8.00;100791.00;;;;5086064;28;20058;-67
2021/05/27 02:15:54;;;;;;;12.82;7.93;;;;;8.00;100798.00;;;;5086145;28;20078;-66
2021/05/27 02:18:21;;;;;;;19.80;9.35;;;;;8.10;100801.00;;;;5085812;28;20597;-70
2021/05/27 02:20:48;;;;;;;23.35;9.90;;;;;8.10;100797.00;;;;5085759;28;20027;-66
2021/05/27 02:23:14;;;;;;;18.65;9.90;;;;;8.10;100784.00;;;;5086879;28;20023;-67
2021/05/27 02:25:41;;;;;;;16.80;12.95;;;;;8.00;100784.00;;;;5086047;28;20028;-69
2021/05/27 02:28:07;;;;;;;27.30;17.83;;;;;7.80;100801.00;;;;5067607;28;20081;-67
2021/05/27 02:30:34;;;;;;;18.52;11.90;;;;;7.80;100792.00;;;;5086053;28;20089;-68
2021/05/27 02:33:01;;;;;;;17.90;11.45;;;;;7.80;100790.00;;;;5085514;28;20024;-68
2021/05/27 02:35:29;;;;;;;22.98;11.35;;;;;7.80;100790.00;;;;5085799;28;20061;-68
2021/05/27 02:37:55;;;;;;;17.73;12.35;;;;;7.70;100795.00;;;;5091816;28;20036;-68
2021/05/27 02:40:22;;;;;;;22.25;11.90;;;;;7.70;100790.00;;;;5085965;28;20489;-69
2021/05/27 02:42:48;;;;;;;21.10;11.77;;;;;7.70;100807.00;;;;5085992;28;20031;-69
2021/05/27 02:45:15;;;;;;;23.83;11.45;;;;;7.80;100812.00;;;;5085484;28;20031;-69
2021/05/27 02:47:41;;;;;;;22.45;11.23;;;;;7.80;100803.00;;;;5085677;28;20060;-66
2021/05/27 02:50:09;;;;;;;15.27;11.45;;;;;7.80;100820.00;;;;5085316;28;20505;-67
2021/05/27 02:52:35;;;;;;;15.20;10.70;;;;;7.80;100791.00;;;;5085523;28;20024;-67
2021/05/27 02:55:02;;;;;;;18.48;11.65;;;;;7.70;100791.00;;;;5085299;28;20482;-67
2021/05/27 02:57:28;;;;;;;15.38;11.10;;;;;7.70;100798.00;;;;5085397;28;20099;-69
2021/05/27 02:59:55;;;;;;;19.05;11.52;;;;;7.70;100797.00;;;;5085407;28;20467;-69
2021/05/27 03:02:21;;;;;;;18.75;9.63;;;;;7.70;100786.00;;;;5084901;28;20021;-69
2021/05/27 03:04:48;;;;;;;14.65;9.70;;;;;7.70;100784.00;;;;5085279;28;20375;-67
2021/05/27 03:07:15;;;;;;;12.02;9.88;;;;;7.70;100782.00;;;;5085440;28;20049;-68
2021/05/27 03:09:41;;;;;;;14.93;9.68;;;;;7.70;100793.00;;;;5084992;28;20024;-68
2021/05/27 03:12:08;;;;;;;20.08;10.90;;;;;7.70;100784.00;;;;5085749;28;20357;-67
2021/05/27 03:14:34;;;;;;;16.65;10.38;;;;;7.60;100788.00;;;;5085616;28;20497;-68
2021/05/27 03:17:01;;;;;;;15.48;9.60;;;;;7.60;100796.00;;;;5085270;28;20025;-68
2021/05/27 03:19:27;;;;;;;12.63;10.20;;;;;7.70;100801.00;;;;5088007;28;20466;-68
2021/05/27 03:21:54;;;;;;;12.43;8.70;;;;;7.70;100787.00;;;;5088531;28;20035;-67
2021/05/27 03:24:20;;;;;;;10.27;8.73;;;;;7.80;100794.00;;;;5089398;28;20119;-68
2021/05/27 03:26:51;;;;;;;14.18;9.35;;;;;7.80;100803.00;;;;5089007;28;20145;-67
2021/05/27 03:29:18;;;;;;;19.98;10.15;;;;;7.80;100802.00;;;;5070685;28;20070;-69
2021/05/27 03:31:45;;;;;;;13.88;9.88;;;;;8.00;100821.00;;;;5088577;28;20081;-68
2021/05/27 03:34:11;;;;;;;11.80;9.93;;;;;8.00;100808.00;;;;5088974;28;20039;-67
2021/05/27 03:36:38;;;;;;;14.48;10.27;;;;;8.00;100826.00;;;;5088614;28;20559;-67
2021/05/27 03:39:06;;;;;;;9.02;7.68;;;;;7.90;100833.00;;;;5088803;28;20066;-68
2021/05/27 03:41:32;;;;;;;13.05;9.13;;;;;7.90;100828.00;;;;5088793;28;20475;-68
2021/05/27 03:43:59;;;;;;;14.57;9.77;;;;;7.90;100827.00;;;;5088277;28;20705;-68
2021/05/27 03:46:25;;;;;;;19.60;11.45;;;;;7.80;100828.00;;;;5088691;28;20024;-67
2021/05/27 03:48:52;;;;;;;18.17;12.77;;;;;7.80;100825.00;;;;5088375;28;20024;-68
2021/05/27 03:51:19;;;;;;;20.35;13.52;;;;;7.80;100821.00;;;;5088199;28;20593;-68
2021/05/27 03:53:45;;;;;;;17.27;11.95;;;;;7.70;100826.00;;;;5088311;28;20040;-69
2021/05/27 03:56:12;;;;;;;14.48;10.55;;;;;7.70;100823.00;;;;5087633;28;20054;-67
2021/05/27 04:01:23;;;;;;;12.95;11.07;;;;;7.70;100814.00;;;;5088418;28;20065;-67
2021/05/27 04:09:20;;;;;;;14.82;10.30;;;;;7.60;100836.00;;;;5088274;28;20520;-68
2021/05/27 04:11:47;;;;;;;17.83;11.50;;;;;7.50;100835.00;;;;5088195;28;20071;-66
2021/05/27 04:14:13;;;;;;;18.00;10.38;;;;;7.50;100844.00;;;;5088229;28;20020;-66
2021/05/27 04:16:40;;;;;;;13.13;10.77;;;;;7.40;100828.00;;;;5087942;28;20053;-69
2021/05/27 04:19:06;;;;;;;17.52;10.35;;;;;7.40;100831.00;;;;5087837;28;20032;-68
2021/05/27 04:21:33;;;;;;;14.88;11.07;;;;;7.40;100828.00;;;;5087019;28;20024;-68
2021/05/27 04:24:00;;;;;;;14.57;10.88;;;;;7.30;100839.00;;;;5087766;28;20019;-68
2021/05/27 04:26:26;;;;;;;14.30;11.82;;;;;7.30;100852.00;;;;5087426;28;20031;-68
2021/05/27 04:28:53;;;;;;;18.50;11.25;;;;;7.20;100860.00;;;;5087259;28;20568;-67
2021/05/27 04:31:21;;;;;;;15.90;11.50;;;;;7.20;100844.00;;;;5087414;28;20055;-68
2021/05/27 04:33:54;;;;;;;14.75;11.68;;;;;7.20;100834.00;;;;5087900;28;20012;-68
2021/05/27 04:36:22;;;;;;;17.55;12.55;;;;;7.20;100833.00;;;;5087064;28;20039;-66
2021/05/27 04:38:49;;;;;;;22.67;13.35;;;;;7.30;100839.00;;;;5087642;28;20040;-67
2021/05/27 04:41:17;;;;;;;21.25;14.00;;;;;7.30;100864.00;;;;5087553;28;20032;-69
2021/05/27 04:43:47;;;;;;;16.27;12.48;;;;;7.40;100857.00;;;;5087580;28;20035;-68
2021/05/27 04:46:14;;;;;;;19.40;12.57;;;;;7.50;100868.00;;;;5087245;28;20097;-68
2021/05/27 04:48:40;;;;;;;16.05;12.65;;;;;7.50;100862.00;;;;5087222;28;20078;-68
2021/05/27 04:51:07;;;;;;;28.67;13.57;;;;;7.60;100867.00;;;;5087371;28;20027;-68
2021/05/27 04:53:34;;;;;;;17.88;13.45;;;;;7.70;100871.00;;;;5087621;28;20850;-68
2021/05/27 04:56:00;;;;;;;16.98;12.68;;;;;7.70;100873.00;;;;5087179;28;20027;-68
2021/05/27 04:58:29;;;;;;;17.20;11.05;;;;;7.50;100848.00;;;;5087499;28;20032;-68
2021/05/27 05:00:56;;;;;;;16.58;12.00;;;;;7.40;100849.00;;;;5086691;28;20461;-69
2021/05/27 05:03:23;;;;;;;14.75;10.60;;;;;7.30;100831.00;;;;5086518;28;20024;-68
2021/05/27 05:05:49;;;;;;;16.80;11.48;;;;;7.20;100817.00;;;;5087263;28;20111;-67
2021/05/27 05:08:16;;;;;;;15.55;13.43;;;;;7.30;100804.00;;;;5086819;28;20089;-68
2021/05/27 05:10:43;;;;;;;16.40;13.55;;;;;7.20;100807.00;;;;5086893;28;20023;-67
2021/05/27 05:13:10;;;;;;;20.90;13.40;;;;;7.20;100807.00;;;;5086646;28;20036;-67
2021/05/27 05:15:39;;;;;;;20.70;13.20;;;;;7.10;100819.00;;;;5086530;28;20367;-67
2021/05/27 05:18:13;;;;;;;20.38;13.38;;;;;7.10;100805.00;;;;5086355;28;20348;-68
2021/05/27 05:20:42;;;;;;;23.73;13.93;;;;;7.10;100800.00;;;;5086244;28;20498;-68
2021/05/27 05:23:09;;;;;;;18.05;13.32;;;;;7.20;100785.00;;;;5087062;28;20024;-66
2021/05/27 05:25:38;;;;;;;16.00;12.75;;;;;7.30;100797.00;;;;5086610;28;20050;-68
2021/05/27 05:28:05;;;;;;;20.13;13.15;;;;;7.20;100794.00;;;;5086520;28;20032;-68
2021/05/27 05:30:32;;;;;;;23.27;13.15;;;;;7.10;100791.00;;;;5085063;28;20028;-68
2021/05/27 05:32:59;;;;;;;22.95;15.35;;;;;7.10;100796.00;;;;5086469;28;20024;-66
2021/05/27 05:35:27;;;;;;;22.75;14.18;;;;;7.20;100791.00;;;;5086663;28;20039;-67
2021/05/27 05:37:54;;;;;;;19.20;14.43;;;;;7.10;100788.00;;;;5086596;28;20024;-68
2021/05/27 05:40:23;;;;;;;21.85;14.45;;;;;7.10;100791.00;;;;5086700;28;20016;-67
2021/05/27 05:42:51;;;;;;;21.05;14.65;;;;;7.10;100778.00;;;;5086150;28;20039;-68
2021/05/27 05:45:19;;;;;;;21.63;14.43;;;;;7.10;100784.00;;;;5086434;28;20352;-68
2021/05/27 05:47:50;;;;;;;16.52;12.50;;;;;7.10;100771.00;;;;5086715;28;20395;-66
2021/05/27 05:53:06;;;;;;;22.23;13.30;;;;;7.20;100792.00;;;;5086222;28;20501;-69
2021/05/27 05:55:33;;;;;;;19.33;14.52;;;;;7.10;100795.00;;;;5086521;28;20055;-68
2021/05/27 05:58:00;;;;;;;18.85;13.20;;;;;7.00;100787.00;;;;5086317;28;20073;-67
2021/05/27 06:00:27;;;;;;;19.38;15.48;;;;;6.90;100800.00;;;;5086395;28;20478;-69
2021/05/27 06:02:53;;;;;;;21.50;16.00;;;;;7.00;100781.00;;;;5086250;28;20486;-67
2021/05/27 06:05:20;;;;;;;20.15;14.70;;;;;7.00;100796.00;;;;5086252;28;20043;-68
2021/05/27 06:07:46;;;;;;;23.33;18.60;;;;;7.00;100758.00;;;;5085980;28;20020;-68
2021/05/27 06:10:13;;;;;;;25.08;17.08;;;;;7.10;100777.00;;;;5085795;28;20016;-68
2021/05/27 06:12:39;;;;;;;28.33;19.58;;;;;7.10;100763.00;;;;5085767;28;20070;-68
2021/05/27 06:15:10;;;;;;;28.67;17.83;;;;;7.10;100755.00;;;;5086354;28;20027;-67
2021/05/27 06:17:36;;;;;;;26.33;19.02;;;;;7.00;100745.00;;;;5085881;28;20020;-67
2021/05/27 06:20:03;;;;;;;31.00;22.05;;;;;7.00;100769.00;;;;5067735;28;20055;-69
2021/05/27 06:22:30;;;;;;;30.95;23.20;;;;;7.00;100762.00;;;;5085543;28;20605;-68
2021/05/27 06:24:57;;;;;;;38.53;24.83;;;;;6.90;100767.00;;;;5084405;28;20096;-69
2021/05/27 06:27:23;;;;;;;29.67;21.42;;;;;6.90;100791.00;;;;5086344;28;20032;-68
2021/05/27 06:29:50;;;;;;;32.60;22.25;;;;;7.00;100786.00;;;;5085546;28;20027;-68
2021/05/27 06:32:16;;;;;;;25.00;20.17;;;;;7.00;100774.00;;;;5085973;28;20370;-68
2021/05/27 06:34:44;;;;;;;32.15;21.92;;;;;7.00;100766.00;;;;5085519;28;20035;-69
2021/05/27 06:37:10;;;;;;;30.20;18.33;;;;;6.90;100760.00;;;;5085148;28;20039;-67
2021/05/27 06:39:37;;;;;;;28.67;18.70;;;;;6.80;100765.00;;;;5085647;28;20389;-68
2021/05/27 06:42:04;;;;;;;20.40;18.00;;;;;6.80;100771.00;;;;5085959;28;20012;-68
2021/05/27 06:44:30;;;;;;;23.27;17.83;;;;;6.80;100768.00;;;;5085588;28;20134;-67
2021/05/27 06:46:57;;;;;;;24.45;17.73;;;;;6.80;100769.00;;;;5085502;28;20036;-67
2021/05/27 06:49:24;;;;;;;26.30;19.15;;;;;6.80;100771.00;;;;5084933;28;20387;-67
2021/05/27 06:51:50;;;;;;;28.80;18.23;;;;;6.70;100757.00;;;;5085332;28;20111;-69
2021/05/27 06:54:17;;;;;;;25.58;18.58;;;;;6.70;100757.00;;;;5087998;28;20661;-67
2021/05/27 06:56:44;;;;;;;22.50;18.27;;;;;6.60;100758.00;;;;5089289;28;20045;-67
2021/05/27 06:59:11;;;;;;;21.67;18.85;;;;;6.70;100754.00;;;;5089304;28;20060;-68
2021/05/27 07:01:37;;;;;;;27.17;17.13;;;;;6.60;100753.00;;;;5088822;28;20036;-69
2021/05/27 07:04:04;;;;;;;24.10;17.60;;;;;6.60;100751.00;;;;5088886;28;20047;-68
2021/05/27 07:06:30;;;;;;;25.40;18.60;;;;;6.50;100754.00;;;;5088185;28;20023;-68
2021/05/27 07:08:57;;;;;;;24.35;17.65;;;;;6.50;100747.00;;;;5089200;28;20425;-68
2021/05/27 07:11:23;;;;;;;24.30;19.50;;;;;6.50;100740.00;;;;5089324;28;20076;-67
2021/05/27 07:13:50;;;;;;;26.52;19.33;;;;;6.50;100753.00;;;;5089343;28;20412;-68
2021/05/27 07:16:16;;;;;;;22.17;18.13;;;;;6.50;100743.00;;;;5088660;28;20020;-68
2021/05/27 07:18:43;;;;;;;18.42;15.32;;;;;6.50;100752.00;;;;5088706;28;20088;-68
2021/05/27 07:21:09;;;;;;;25.42;17.55;;;;;6.50;100733.00;;;;5088906;28;20031;-68
2021/05/27 07:23:36;;;;;;;26.90;18.67;;;;;6.40;100731.00;;;;5089662;28;20086;-67
2021/05/27 07:26:04;;;;;;;19.45;16.58;;;;;6.40;100725.00;;;;5088581;28;20051;-68
2021/05/27 07:28:32;;;;;;;25.10;17.95;;;;;6.40;100737.00;;;;5089005;28;20107;-69
2021/05/27 07:31:00;;;;;;;27.65;18.40;;;;;6.40;100730.00;;;;5088454;28;20016;-67
2021/05/27 07:33:27;;;;;;;26.80;17.58;;;;;6.40;100710.00;;;;5089469;28;20404;-68
2021/05/27 07:35:53;;;;;;;21.48;17.55;;;;;6.30;100698.00;;;;5088838;28;20024;-67
2021/05/27 07:38:20;;;;;;;25.55;17.45;;;;;6.30;100703.00;;;;5088570;28;20074;-68
2021/05/27 07:40:46;;;;;;;27.77;17.92;;;;;6.30;100704.00;;;;5088833;28;20047;-68
2021/05/27 07:43:14;;;;;;;22.17;18.65;;;;;6.40;100710.00;;;;5088537;28;20028;-67
2021/05/27 07:45:41;;;;;;;21.35;16.45;;;;;6.50;100701.00;;;;5088339;28;20182;-69
2021/05/27 07:48:08;;;;;;;22.92;16.17;;;;;6.50;100735.00;;;;5088520;28;20469;-67
2021/05/27 07:50:35;;;;;;;30.63;15.68;;;;;6.50;100721.00;;;;5088458;28;20032;-68
2021/05/27 07:53:01;;;;;;;20.88;15.93;;;;;6.50;100737.00;;;;5088434;28;20030;-68
2021/05/27 07:55:28;;;;;;;20.65;15.95;;;;;6.60;100736.00;;;;5088164;28;20052;-68
2021/05/27 07:57:54;;;;;;;20.17;15.38;;;;;6.70;100744.00;;;;5088695;28;20031;-68
2021/05/27 08:00:22;;;;;;;25.08;16.17;;;;;6.70;100753.00;;;;5087836;28;20379;-66
2021/05/27 08:02:49;;;;;;;22.00;15.48;;;;;6.60;100756.00;;;;5088144;28;20055;-67
2021/05/27 08:05:16;;;;;;;20.35;16.70;;;;;6.60;100762.00;;;;5087573;28;20102;-69
2021/05/27 08:07:43;;;;;;;20.33;16.50;;;;;6.70;100758.00;;;;5088109;28;20012;-68
2021/05/27 08:10:12;;;;;;;23.17;16.55;;;;;6.70;100757.00;;;;5088306;28;20020;-67
2021/05/27 08:12:39;;;;;;;21.48;16.13;;;;;6.70;100741.00;;;;5088590;28;20026;-68
2021/05/27 08:15:06;;;;;;;26.40;16.98;;;;;6.80;100743.00;;;;5088053;28;20024;-67
2021/05/27 08:17:34;;;;;;;26.50;16.73;;;;;6.70;100734.00;;;;5088332;28;20110;-66
2021/05/27 08:20:01;;;;;;;25.05;15.02;;;;;6.60;100753.00;;;;5088070;28;20024;-69
2021/05/27 08:22:28;;;;;;;20.33;14.38;;;;;6.70;100766.00;;;;5087659;28;21175;-67
2021/05/27 08:24:55;;;;;;;23.10;16.35;;;;;6.70;100755.00;;;;5087864;28;20028;-68
2021/05/27 08:27:22;;;;;;;22.30;19.70;;;;;6.70;100755.00;;;;5087486;28;20086;-67
2021/05/27 08:29:48;;;;;;;27.38;20.85;;;;;6.70;100749.00;;;;5088192;28;20024;-66
2021/05/27 08:32:15;;;;;;;21.35;17.67;;;;;6.70;100748.00;;;;5087411;28;20024;-68
2021/05/27 08:34:41;;;;;;;25.70;17.17;;;;;6.70;100740.00;;;;5087866;28;20042;-68
2021/05/27 08:37:08;;;;;;;24.17;16.85;;;;;6.60;100744.00;;;;5088751;28;20027;-69
2021/05/27 08:39:34;;;;;;;20.50;14.85;;;;;6.40;100745.00;;;;5088081;28;20035;-67
2021/05/27 08:42:01;;;;;;;21.95;14.48;;;;;6.40;100736.00;;;;5087293;28;20020;-67
2021/05/27 08:44:28;;;;;;;18.38;14.35;;;;;6.40;100736.00;;;;5087620;28;20525;-68
2021/05/27 08:46:55;;;;;;;23.85;15.98;;;;;6.40;100733.00;;;;5087647;28;20031;-66
2021/05/27 08:49:21;;;;;;;28.08;16.77;;;;;6.50;100727.00;;;;5087266;28;20016;-68
2021/05/27 08:51:48;;;;;;;25.63;16.80;;;;;6.40;100748.00;;;;5087148;28;20031;-66
2021/05/27 08:54:14;;;;;;;31.23;15.95;;;;;6.30;100736.00;;;;5087078;28;20086;-68
2021/05/27 08:56:41;;;;;;;32.17;16.83;;;;;6.30;100737.00;;;;5087063;28;20032;-67
2021/05/27 08:59:07;;;;;;;27.58;17.23;;;;;6.30;100726.00;;;;5087044;28;20433;-68
2021/05/27 09:01:34;;;;;;;25.73;15.82;;;;;6.20;100745.00;;;;5086991;28;20028;-67
2021/05/27 09:04:02;;;;;;;26.30;15.18;;;;;6.00;100738.00;;;;5087782;28;20024;-68
2021/05/27 09:06:28;;;;;;;25.70;16.05;;;;;6.00;100738.00;;;;5086477;28;20059;-67
2021/05/27 09:09:07;;;;;;;22.58;16.17;;;;;6.00;100746.00;;;;5086991;28;20024;-68
2021/05/27 09:11:40;;;;;;;21.38;15.75;;;;;6.00;100760.00;;;;5086781;28;20508;-67
2021/05/27 09:14:06;;;;;;;20.95;15.27;;;;;6.00;100765.00;;;;5086625;28;20825;-67
2021/05/27 09:16:33;;;;;;;23.65;14.48;;;;;6.00;100767.00;;;;5085881;28;20050;-67
2021/05/27 09:19:18;;;;;;;22.15;14.98;;;;;5.90;100778.00;;;;5086743;28;20027;-67
2021/05/27 09:21:45;;;;;;;22.40;15.45;;;;;5.90;100782.00;;;;5086277;28;20592;-68
2021/05/27 09:24:12;;;;;;;21.23;15.45;;;;;6.00;100772.00;;;;5086708;28;20110;-70
2021/05/27 09:26:56;;;;;;;29.90;16.83;;;;;6.00;100789.00;;;;5086882;28;20035;-69
2021/05/27 09:29:23;;;;;;;23.60;16.80;;;;;5.90;100783.00;;;;5086804;28;20020;-66
2021/05/27 09:32:06;;;;;;;26.40;16.13;;;;;5.90;100790.00;;;;5086470;28;20031;-67
2021/05/27 09:34:45;;;;;;;15.48;12.95;;;;;5.90;100793.00;;;;5086625;28;20494;-67
2021/05/27 09:37:38;;;;;;;48.33;13.98;;;;;5.90;100788.00;;;;5086549;28;20450;-66
2021/05/27 09:40:06;;;;;;;18.02;13.70;;;;;5.90;100795.00;;;;5084285;28;20040;-67
2021/05/27 09:42:51;;;;;;;26.40;16.67;;;;;5.90;100788.00;;;;5086826;28;20032;-66
2021/05/27 09:45:18;;;;;;;17.20;13.32;;;;;5.80;100793.00;;;;5086450;28;20028;-68
2021/05/27 09:47:45;;;;;;;24.60;16.38;;;;;5.80;100801.00;;;;5085918;28;20417;-68
2021/05/27 09:50:12;;;;;;;18.92;14.95;;;;;5.70;100786.00;;;;5086548;28;20099;-66
2021/05/27 09:52:45;;;;;;;26.20;18.08;;;;;5.70;100812.00;;;;5085903;28;20681;-67
2021/05/27 09:55:18;;;;;;;38.25;22.02;;;;;5.70;100798.00;;;;5086281;28;20039;-67
2021/05/27 09:57:46;;;;;;;33.53;21.45;;;;;5.70;100791.00;;;;5086621;28;20471;-67
2021/05/27 10:00:21;;;;;;;35.60;23.17;;;;;5.80;100789.00;;;;5086275;28;20016;-68
2021/05/27 10:02:50;;;;;;;41.45;22.42;;;;;5.80;100792.00;;;;5086410;28;20028;-67
2021/05/27 10:05:16;;;;;;;41.33;20.23;;;;;5.90;100786.00;;;;5085337;28;20060;-67
2021/05/27 10:07:51;;;;;;;50.88;21.65;;;;;5.90;100789.00;;;;5085913;28;20174;-66
2021/05/27 10:10:23;;;;;;;36.40;19.50;;;;;5.90;100786.00;;;;5085848;28;20028;-68
2021/05/27 10:12:52;;;;;;;28.30;19.55;;;;;5.90;100803.00;;;;5086059;28;20020;-67
2021/05/27 10:15:21;;;;;;;29.83;21.75;;;;;5.90;100795.00;;;;5086175;28;20035;-67
2021/05/27 10:17:48;;;;;;;26.95;17.95;;;;;5.90;100795.00;;;;5085318;28;20382;-68
2021/05/27 10:20:17;;;;;;;22.55;16.63;;;;;5.90;100799.00;;;;5086288;28;20024;-68
2021/05/27 10:22:44;;;;;;;24.45;17.08;;;;;5.90;100790.00;;;;5086200;28;20028;-66
2021/05/27 10:25:14;;;;;;;26.55;15.75;;;;;5.90;100803.00;;;;5086384;28;20028;-67
2021/05/27 10:27:42;;;;;;;25.60;16.10;;;;;5.90;100802.00;;;;5087431;28;20024;-65
2021/05/27 10:30:10;;;;;;;25.38;16.15;;;;;5.90;100801.00;;;;5089592;28;20024;-67
2021/05/27 10:32:44;;;;;;;23.77;14.82;;;;;5.90;100808.00;;;;5090615;28;20106;-68
2021/05/27 10:35:11;;;;;;;29.63;16.17;;;;;5.90;100794.00;;;;5090271;28;20352;-67
2021/05/27 10:37:37;;;;;;;21.65;15.35;;;;;6.00;100808.00;;;;5090359;28;20028;-66
2021/05/27 10:40:32;;;;;;;22.90;15.15;;;;;6.20;100814.00;;;;5090602;28;20035;-67
2021/05/27 10:43:09;;;;;;;27.08;17.42;;;;;6.70;100779.00;;;;5089787;28;20063;-65
2021/05/27 10:46:06;;;;;;;21.80;15.27;;;;;7.80;100703.00;;;;5090388;28;20796;-65
2021/05/27 10:48:43;;;;;;;27.92;14.02;;;;;9.80;100658.00;;;;5089736;28;20023;-66
2021/05/27 10:51:45;;;;;;;23.45;12.18;;;;;10.20;100671.00;;;;5089597;28;20024;-66
2021/05/27 10:54:14;;;;;;;32.50;12.52;;;;;10.10;100738.00;;;;5089431;28;20047;-67
2021/05/27 10:56:43;;;;;;;20.17;11.00;;;;;9.40;100746.00;;;;5090161;28;20024;-66
2021/05/27 10:59:14;;;;;;;28.73;11.63;;;;;9.50;100752.00;;;;5089349;28;20466;-67
2021/05/27 11:01:42;;;;;;;33.08;10.55;;;;;10.20;100723.00;;;;5089119;28;20031;-66
2021/05/27 11:04:21;;;;;;;15.95;9.60;;;;;9.50;100735.00;;;;5089311;28;20162;-67
2021/05/27 11:06:49;;;;;;;13.98;8.82;;;;;9.60;100730.00;;;;5089988;28;20415;-67
2021/05/27 11:09:16;;;;;;;25.05;9.05;;;;;9.30;100733.00;;;;5089656;28;20467;-67
2021/05/27 11:11:47;;;;;;;17.20;7.95;;;;;9.60;100680.00;;;;5090003;28;20536;-67
2021/05/27 11:14:36;;;;;;;16.75;7.55;;;;;13.00;100604.00;;;;5089604;28;20031;-67
2021/05/27 11:17:03;;;;;;;21.02;8.18;;;;;12.50;100685.00;;;;5089564;28;20039;-67
2021/05/27 11:25:16;;;;;;;20.17;11.10;;;;;16.30;100562.00;;;;5089520;28;20036;-68
2021/05/27 11:28:11;;;;;;;26.48;10.57;;;;;15.90;100551.00;;;;5089206;28;20020;-66
2021/05/27 11:30:44;;;;;;;22.00;11.50;;;;;17.10;100551.00;;;;5081984;28;20044;-67
2021/05/27 11:33:13;;;;;;;27.58;9.70;;;;;17.30;100520.00;;;;5088831;28;20016;-67
2021/05/27 11:35:42;;;;;;;36.28;10.45;;;;;17.50;100520.00;;;;5088650;28;20032;-67
2021/05/27 11:38:15;;;;;;;28.38;11.00;;;;;18.40;100546.00;;;;5089095;28;20104;-69
2021/05/27 11:40:46;;;;;;;15.73;8.77;;;;;18.80;100574.00;;;;5087724;28;20115;-68
2021/05/27 11:43:14;;;;;;;20.95;8.20;;;;;18.80;100603.00;;;;5088328;28;20016;-69
2021/05/27 11:45:50;;;;;;;14.10;7.32;;;;;19.30;100598.00;;;;5088666;28;20482;-66
2021/05/27 11:50:45;;;;;;;36.22;9.65;;;;;19.80;100603.00;;;;5088562;28;20047;-67
2021/05/27 11:53:12;;;;;;;32.10;9.18;;;;;20.00;100593.00;;;;5088203;28;20047;-69
2021/05/27 11:55:39;;;;;;;17.90;8.68;;;;;20.00;100580.00;;;;5087607;28;20474;-69
2021/05/27 11:58:06;;;;;;;17.42;8.43;;;;;20.20;100576.00;;;;5088693;28;20019;-67
2021/05/27 12:00:33;;;;;;;23.30;8.18;;;;;20.30;100578.00;;;;5088124;28;20479;-68
2021/05/27 12:03:00;;;;;;;17.02;8.02;;;;;20.60;100598.00;;;;5088085;28;20547;-68
2021/05/27 12:05:28;;;;;;;17.83;7.93;;;;;20.40;100626.00;;;;5088150;28;20089;-69
2021/05/27 12:08:05;;;;;;;23.90;8.20;;;;;21.40;100619.00;;;;5088261;28;20035;-69
2021/05/27 12:10:35;;;;;;;28.10;8.35;;;;;21.30;100633.00;;;;5088049;28;20020;-68
2021/05/27 12:13:02;;;;;;;16.10;7.75;;;;;21.60;100622.00;;;;5087642;28;20020;-67
2021/05/27 12:15:31;;;;;;;23.08;7.57;;;;;21.60;100568.00;;;;5088036;28;20031;-69
2021/05/27 12:17:58;;;;;;;19.48;8.35;;;;;21.80;100574.00;;;;5087868;28;20066;-69
2021/05/27 12:20:48;;;;;;;12.77;7.25;;;;;22.60;100594.00;;;;5087682;28;20475;-68
2021/05/27 12:23:17;;;;;;;17.90;7.75;;;;;22.10;100600.00;;;;5087877;28;20058;-68
2021/05/27 12:25:54;;;;;;;13.20;6.78;;;;;22.00;100628.00;;;;5087730;28;20111;-70
2021/05/27 12:28:23;;;;;;;13.43;7.18;;;;;22.50;100667.00;;;;5088244;28;20016;-69